sensor_id;sensor_type;location;lat;lon;timestamp;pressure;altitude;pressure_sealevel;temperature;humidity
71915;BME280;60387;49.994;14.660;2023-05-12T00:01:19;97562.22;;;18.37;36.12
71915;BME280;60387;49.994;14.660;2023-05-12T00:03:52;97559.72;;;18.32;35.69
71915;BME280;60387;49.994;14.660;2023-05-12T00:06:25;97564.97;;;18.37;35.73
71915;BME280;60387;49.994;14.660;2023-05-12T00:08:58;97569.28;;;18.38;35.36
71915;BME280;60387;49.994;14.660;2023-05-12T00:11:32;97563.34;;;18.36;35.81
71915;BME280;60387;49.994;14.660;2023-05-12T00:14:05;97568.81;;;18.36;35.80
71915;BME280;60387;49.994;14.660;2023-05-12T00:16:39;97564.50;;;18.35;35.75
71915;BME280;60387;49.994;14.660;2023-05-12T00:19:12;97566.81;;;18.33;36.36
71915;BME280;60387;49.994;14.660;2023-05-12T00:21:46;97574.59;;;18.31;35.82
71915;BME280;60387;49.994;14.660;2023-05-12T00:24:19;97571.03;;;18.30;35.92
71915;BME280;60387;49.994;14.660;2023-05-12T00:26:53;97573.56;;;18.23;36.13
71915;BME280;60387;49.994;14.660;2023-05-12T00:29:26;97576.06;;;18.28;36.37
71915;BME280;60387;49.994;14.660;2023-05-12T00:31:59;97568.91;;;18.24;36.14
71915;BME280;60387;49.994;14.660;2023-05-12T00:34:32;97576.31;;;18.23;36.30
71915;BME280;60387;49.994;14.660;2023-05-12T00:37:06;97576.69;;;18.22;36.72
71915;BME280;60387;49.994;14.660;2023-05-12T00:39:39;97574.63;;;18.19;36.50
71915;BME280;60387;49.994;14.660;2023-05-12T00:42:12;97569.88;;;18.16;36.50
71915;BME280;60387;49.994;14.660;2023-05-12T00:44:45;97571.72;;;18.12;36.92
71915;BME280;60387;49.994;14.660;2023-05-12T00:47:19;97570.84;;;18.08;36.32
71915;BME280;60387;49.994;14.660;2023-05-12T00:49:52;97563.66;;;18.03;36.01
71915;BME280;60387;49.994;14.660;2023-05-12T00:52:26;97569.06;;;18.00;36.23
71915;BME280;60387;49.994;14.660;2023-05-12T00:54:59;97570.47;;;17.94;36.60
71915;BME280;60387;49.994;14.660;2023-05-12T00:57:33;97568.88;;;17.93;36.86
71915;BME280;60387;49.994;14.660;2023-05-12T01:00:07;97568.44;;;17.91;36.99
71915;BME280;60387;49.994;14.660;2023-05-12T01:02:40;97568.22;;;17.84;36.76
71915;BME280;60387;49.994;14.660;2023-05-12T01:05:13;97573.56;;;17.77;36.97
71915;BME280;60387;49.994;14.660;2023-05-12T01:07:47;97560.09;;;17.72;37.02
71915;BME280;60387;49.994;14.660;2023-05-12T01:10:21;97572.88;;;17.68;37.06
71915;BME280;60387;49.994;14.660;2023-05-12T01:12:54;97561.03;;;17.64;36.86
71915;BME280;60387;49.994;14.660;2023-05-12T01:15:30;97559.78;;;17.61;36.71
71915;BME280;60387;49.994;14.660;2023-05-12T01:18:04;97562.72;;;17.53;36.84
71915;BME280;60387;49.994;14.660;2023-05-12T01:20:41;97567.72;;;17.51;36.92
71915;BME280;60387;49.994;14.660;2023-05-12T01:23:17;97574.59;;;17.45;36.74
71915;BME280;60387;49.994;14.660;2023-05-12T01:25:51;97570.72;;;17.34;37.29
71915;BME280;60387;49.994;14.660;2023-05-12T01:28:24;97578.16;;;17.33;37.25
71915;BME280;60387;49.994;14.660;2023-05-12T01:30:58;97582.72;;;17.29;37.78
71915;BME280;60387;49.994;14.660;2023-05-12T01:33:33;97577.06;;;17.22;37.54
71915;BME280;60387;49.994;14.660;2023-05-12T01:36:07;97574.88;;;17.16;37.49
71915;BME280;60387;49.994;14.660;2023-05-12T01:38:41;97583.38;;;17.11;37.51
71915;BME280;60387;49.994;14.660;2023-05-12T01:41:14;97578.72;;;16.99;37.62
71915;BME280;60387;49.994;14.660;2023-05-12T01:43:47;97579.59;;;17.03;37.72
71915;BME280;60387;49.994;14.660;2023-05-12T01:46:21;97571.97;;;16.97;37.51
71915;BME280;60387;49.994;14.660;2023-05-12T01:48:54;97573.47;;;16.94;37.52
71915;BME280;60387;49.994;14.660;2023-05-12T01:51:27;97575.53;;;16.85;37.68
71915;BME280;60387;49.994;14.660;2023-05-12T01:54:01;97575.19;;;16.87;37.73
71915;BME280;60387;49.994;14.660;2023-05-12T01:56:34;97578.28;;;16.85;38.57
71915;BME280;60387;49.994;14.660;2023-05-12T01:59:07;97578.53;;;16.80;37.93
71915;BME280;60387;49.994;14.660;2023-05-12T02:01:40;97577.72;;;16.80;37.94
71915;BME280;60387;49.994;14.660;2023-05-12T02:04:14;97587.41;;;16.77;38.43
71915;BME280;60387;49.994;14.660;2023-05-12T02:06:47;97587.41;;;16.77;38.26
71915;BME280;60387;49.994;14.660;2023-05-12T02:09:20;97580.94;;;16.70;38.13
71915;BME280;60387;49.994;14.660;2023-05-12T02:11:53;97594.38;;;16.75;37.88
71915;BME280;60387;49.994;14.660;2023-05-12T02:14:27;97592.88;;;16.77;38.17
71915;BME280;60387;49.994;14.660;2023-05-12T02:17:00;97597.78;;;16.72;38.66
71915;BME280;60387;49.994;14.660;2023-05-12T02:19:33;97598.16;;;16.70;38.13
71915;BME280;60387;49.994;14.660;2023-05-12T02:22:07;97597.91;;;16.63;39.18
71915;BME280;60387;49.994;14.660;2023-05-12T02:24:40;97599.50;;;16.64;38.42
71915;BME280;60387;49.994;14.660;2023-05-12T02:27:13;97589.59;;;16.60;39.15
71915;BME280;60387;49.994;14.660;2023-05-12T02:29:47;97590.41;;;16.48;40.00
71915;BME280;60387;49.994;14.660;2023-05-12T02:32:20;97588.47;;;16.49;39.23
71915;BME280;60387;49.994;14.660;2023-05-12T02:34:56;97591.88;;;16.46;39.73
71915;BME280;60387;49.994;14.660;2023-05-12T02:37:30;97599.06;;;16.38;39.68
71915;BME280;60387;49.994;14.660;2023-05-12T02:40:04;97590.72;;;16.35;39.10
71915;BME280;60387;49.994;14.660;2023-05-12T02:42:37;97596.88;;;16.32;39.32
71915;BME280;60387;49.994;14.660;2023-05-12T02:45:11;97601.28;;;16.24;40.36
71915;BME280;60387;49.994;14.660;2023-05-12T02:47:44;97599.00;;;16.26;39.65
71915;BME280;60387;49.994;14.660;2023-05-12T02:50:17;97596.63;;;16.25;39.92
71915;BME280;60387;49.994;14.660;2023-05-12T02:52:51;97605.97;;;16.24;40.37
71915;BME280;60387;49.994;14.660;2023-05-12T02:55:24;97582.81;;;16.10;40.32
71915;BME280;60387;49.994;14.660;2023-05-12T02:57:57;97598.56;;;16.13;39.63
71915;BME280;60387;49.994;14.660;2023-05-12T03:00:30;97588.84;;;16.03;39.69
71915;BME280;60387;49.994;14.660;2023-05-12T03:03:04;97603.75;;;16.06;39.53
71915;BME280;60387;49.994;14.660;2023-05-12T03:05:37;97592.84;;;16.06;39.55
71915;BME280;60387;49.994;14.660;2023-05-12T03:08:10;97603.19;;;16.00;39.62
71915;BME280;60387;49.994;14.660;2023-05-12T03:10:44;97600.78;;;15.99;39.56
71915;BME280;60387;49.994;14.660;2023-05-12T03:13:17;97597.16;;;15.95;39.74
71915;BME280;60387;49.994;14.660;2023-05-12T03:15:50;97601.47;;;15.96;41.50
71915;BME280;60387;49.994;14.660;2023-05-12T03:18:23;97604.53;;;15.94;40.46
71915;BME280;60387;49.994;14.660;2023-05-12T03:20:57;97601.22;;;15.89;39.99
71915;BME280;60387;49.994;14.660;2023-05-12T03:23:30;97600.91;;;15.90;40.16
71915;BME280;60387;49.994;14.660;2023-05-12T03:26:03;97603.16;;;15.88;40.85
71915;BME280;60387;49.994;14.660;2023-05-12T03:28:36;97604.66;;;15.86;40.59
71915;BME280;60387;49.994;14.660;2023-05-12T03:31:10;97609.75;;;15.87;39.94
71915;BME280;60387;49.994;14.660;2023-05-12T03:33:43;97607.38;;;15.86;39.38
71915;BME280;60387;49.994;14.660;2023-05-12T03:36:16;97604.66;;;15.86;39.62
71915;BME280;60387;49.994;14.660;2023-05-12T03:38:50;97600.66;;;15.83;39.43
71915;BME280;60387;49.994;14.660;2023-05-12T03:41:23;97609.97;;;15.82;39.44
71915;BME280;60387;49.994;14.660;2023-05-12T03:43:56;97617.03;;;15.83;39.22
71915;BME280;60387;49.994;14.660;2023-05-12T03:46:30;97612.47;;;15.87;39.21
71915;BME280;60387;49.994;14.660;2023-05-12T03:49:03;97616.59;;;15.93;39.08
71915;BME280;60387;49.994;14.660;2023-05-12T03:51:37;97616.97;;;16.04;39.12
71915;BME280;60387;49.994;14.660;2023-05-12T03:54:10;97613.06;;;16.37;39.21
71915;BME280;60387;49.994;14.660;2023-05-12T03:56:43;97620.78;;;16.95;38.88
71915;BME280;60387;49.994;14.660;2023-05-12T03:59:16;97622.03;;;17.61;38.92
71915;BME280;60387;49.994;14.660;2023-05-12T04:01:51;97618.16;;;18.20;37.96
71915;BME280;60387;49.994;14.660;2023-05-12T04:04:24;97622.31;;;18.92;37.69
71915;BME280;60387;49.994;14.660;2023-05-12T04:06:58;97626.06;;;19.53;37.25
71915;BME280;60387;49.994;14.660;2023-05-12T04:09:31;97626.06;;;20.09;36.77
71915;BME280;60387;49.994;14.660;2023-05-12T04:12:05;97624.97;;;20.59;36.39
71915;BME280;60387;49.994;14.660;2023-05-12T04:14:38;97629.38;;;21.12;35.98
71915;BME280;60387;49.994;14.660;2023-05-12T04:17:12;97635.22;;;21.62;35.44
71915;BME280;60387;49.994;14.660;2023-05-12T04:19:45;97640.59;;;22.14;35.04
71915;BME280;60387;49.994;14.660;2023-05-12T04:22:18;97634.66;;;22.49;34.57
71915;BME280;60387;49.994;14.660;2023-05-12T04:24:51;97642.09;;;22.85;34.75
71915;BME280;60387;49.994;14.660;2023-05-12T04:27:25;97644.72;;;23.14;34.68
71915;BME280;60387;49.994;14.660;2023-05-12T04:29:58;97650.03;;;23.47;33.83
71915;BME280;60387;49.994;14.660;2023-05-12T04:32:31;97656.94;;;23.81;33.66
71915;BME280;60387;49.994;14.660;2023-05-12T04:35:04;97665.41;;;24.09;33.85
71915;BME280;60387;49.994;14.660;2023-05-12T04:37:38;97666.69;;;24.43;33.54
71915;BME280;60387;49.994;14.660;2023-05-12T04:40:11;97669.13;;;24.69;33.49
71915;BME280;60387;49.994;14.660;2023-05-12T04:42:44;97665.59;;;24.93;33.17
71915;BME280;60387;49.994;14.660;2023-05-12T04:45:18;97669.53;;;25.09;33.18
71915;BME280;60387;49.994;14.660;2023-05-12T04:47:51;97679.47;;;25.24;32.94
71915;BME280;60387;49.994;14.660;2023-05-12T04:50:24;97675.50;;;25.36;33.21
71915;BME280;60387;49.994;14.660;2023-05-12T04:52:58;97669.91;;;25.46;33.03
71915;BME280;60387;49.994;14.660;2023-05-12T04:55:31;97671.50;;;25.47;32.62
71915;BME280;60387;49.994;14.660;2023-05-12T04:58:04;97664.00;;;25.37;32.38
71915;BME280;60387;49.994;14.660;2023-05-12T05:00:38;97665.56;;;25.21;32.88
71915;BME280;60387;49.994;14.660;2023-05-12T05:03:11;97666.78;;;25.06;31.74
71915;BME280;60387;49.994;14.660;2023-05-12T05:05:44;97673.91;;;24.82;31.69
71915;BME280;60387;49.994;14.660;2023-05-12T05:08:18;97681.72;;;24.52;31.90
71915;BME280;60387;49.994;14.660;2023-05-12T05:10:51;97683.28;;;24.36;31.97
71915;BME280;60387;49.994;14.660;2023-05-12T05:13:24;97670.53;;;24.14;32.38
71915;BME280;60387;49.994;14.660;2023-05-12T05:15:57;97666.91;;;23.96;32.33
71915;BME280;60387;49.994;14.660;2023-05-12T05:18:31;97680.31;;;23.87;32.15
71915;BME280;60387;49.994;14.660;2023-05-12T05:21:04;97675.84;;;23.72;33.03
71915;BME280;60387;49.994;14.660;2023-05-12T05:23:37;97677.00;;;23.60;33.02
71915;BME280;60387;49.994;14.660;2023-05-12T05:26:11;97686.78;;;23.44;32.94
71915;BME280;60387;49.994;14.660;2023-05-12T05:28:44;97660.44;;;23.10;33.33
71915;BME280;60387;49.994;14.660;2023-05-12T05:31:17;97680.88;;;22.99;33.55
71915;BME280;60387;49.994;14.660;2023-05-12T05:33:50;97683.56;;;22.88;33.89
71915;BME280;60387;49.994;14.660;2023-05-12T05:36:24;97679.97;;;22.84;33.92
71915;BME280;60387;49.994;14.660;2023-05-12T05:38:57;97686.03;;;23.00;33.94
71915;BME280;60387;49.994;14.660;2023-05-12T05:41:30;97684.41;;;22.96;34.24
71915;BME280;60387;49.994;14.660;2023-05-12T05:44:04;97687.97;;;23.00;34.52
71915;BME280;60387;49.994;14.660;2023-05-12T05:46:37;97691.56;;;23.04;34.07
71915;BME280;60387;49.994;14.660;2023-05-12T05:49:10;97698.34;;;23.10;34.20
71915;BME280;60387;49.994;14.660;2023-05-12T05:51:43;97699.28;;;23.24;33.91
71915;BME280;60387;49.994;14.660;2023-05-12T05:54:17;97696.09;;;23.19;34.10
71915;BME280;60387;49.994;14.660;2023-05-12T05:56:50;97701.09;;;23.06;34.08
71915;BME280;60387;49.994;14.660;2023-05-12T05:59:23;97701.56;;;22.72;34.77
71915;BME280;60387;49.994;14.660;2023-05-12T06:01:56;97700.28;;;22.66;34.44
71915;BME280;60387;49.994;14.660;2023-05-12T06:04:30;97705.84;;;22.69;34.65
71915;BME280;60387;49.994;14.660;2023-05-12T06:07:03;97704.31;;;22.72;34.86
71915;BME280;60387;49.994;14.660;2023-05-12T06:09:36;97703.28;;;22.87;34.88
71915;BME280;60387;49.994;14.660;2023-05-12T06:12:09;97711.81;;;23.15;34.50
71915;BME280;60387;49.994;14.660;2023-05-12T06:14:43;97718.41;;;23.50;34.18
71915;BME280;60387;49.994;14.660;2023-05-12T06:17:16;97720.88;;;23.65;33.84
71915;BME280;60387;49.994;14.660;2023-05-12T06:19:50;97726.47;;;23.72;33.87
71915;BME280;60387;49.994;14.660;2023-05-12T06:22:23;97725.22;;;23.66;33.15
71915;BME280;60387;49.994;14.660;2023-05-12T06:24:56;97720.78;;;23.51;33.76
71915;BME280;60387;49.994;14.660;2023-05-12T06:27:30;97729.47;;;23.50;33.53
71915;BME280;60387;49.994;14.660;2023-05-12T06:30:03;97722.75;;;23.48;34.18
71915;BME280;60387;49.994;14.660;2023-05-12T06:32:37;97725.91;;;23.49;33.83
71915;BME280;60387;49.994;14.660;2023-05-12T06:35:10;97730.59;;;23.42;34.16
71915;BME280;60387;49.994;14.660;2023-05-12T06:37:43;97733.22;;;23.25;34.53
71915;BME280;60387;49.994;14.660;2023-05-12T06:40:16;97730.44;;;23.21;33.93
71915;BME280;60387;49.994;14.660;2023-05-12T06:42:50;97726.97;;;23.31;34.46
71915;BME280;60387;49.994;14.660;2023-05-12T06:45:23;97733.69;;;23.34;33.85
71915;BME280;60387;49.994;14.660;2023-05-12T06:47:56;97741.72;;;23.49;34.03
71915;BME280;60387;49.994;14.660;2023-05-12T06:50:30;97740.63;;;23.64;33.50
71915;BME280;60387;49.994;14.660;2023-05-12T06:53:03;97746.25;;;23.78;33.94
71915;BME280;60387;49.994;14.660;2023-05-12T06:55:36;97758.91;;;23.79;33.79
71915;BME280;60387;49.994;14.660;2023-05-12T06:58:10;97754.91;;;23.73;33.83
71915;BME280;60387;49.994;14.660;2023-05-12T07:00:43;97760.09;;;23.81;33.93
71915;BME280;60387;49.994;14.660;2023-05-12T07:03:16;97746.06;;;24.11;33.94
71915;BME280;60387;49.994;14.660;2023-05-12T07:05:49;97745.03;;;24.50;33.68
71915;BME280;60387;49.994;14.660;2023-05-12T07:08:23;97748.72;;;24.82;32.75
71915;BME280;60387;49.994;14.660;2023-05-12T07:10:58;97741.63;;;25.06;32.27
71915;BME280;60387;49.994;14.660;2023-05-12T07:13:32;97749.16;;;25.19;31.87
71915;BME280;60387;49.994;14.660;2023-05-12T07:16:05;97744.81;;;25.43;31.67
71915;BME280;60387;49.994;14.660;2023-05-12T07:18:38;97728.97;;;25.47;31.78
71915;BME280;60387;49.994;14.660;2023-05-12T07:21:12;97742.81;;;25.64;31.78
71915;BME280;60387;49.994;14.660;2023-05-12T07:23:45;97739.63;;;25.87;31.04
71915;BME280;60387;49.994;14.660;2023-05-12T07:26:19;97741.53;;;26.11;30.73
71915;BME280;60387;49.994;14.660;2023-05-12T07:28:53;97743.78;;;26.44;30.65
71915;BME280;60387;49.994;14.660;2023-05-12T07:31:26;97742.88;;;26.75;30.65
71915;BME280;60387;49.994;14.660;2023-05-12T07:33:59;97738.81;;;26.90;29.52
71915;BME280;60387;49.994;14.660;2023-05-12T07:36:33;97749.09;;;27.00;29.06
71915;BME280;60387;49.994;14.660;2023-05-12T07:39:06;97735.53;;;27.05;29.19
71915;BME280;60387;49.994;14.660;2023-05-12T07:41:40;97744.63;;;27.16;29.29
71915;BME280;60387;49.994;14.660;2023-05-12T07:44:13;97737.28;;;27.39;29.01
71915;BME280;60387;49.994;14.660;2023-05-12T07:46:46;97739.94;;;27.53;28.96
71915;BME280;60387;49.994;14.660;2023-05-12T07:49:19;97736.28;;;27.60;28.01
71915;BME280;60387;49.994;14.660;2023-05-12T07:51:53;97741.44;;;27.61;27.98
71915;BME280;60387;49.994;14.660;2023-05-12T07:54:26;97749.75;;;27.68;28.99
71915;BME280;60387;49.994;14.660;2023-05-12T07:56:59;97743.38;;;27.68;27.84
71915;BME280;60387;49.994;14.660;2023-05-12T07:59:32;97743.47;;;27.61;28.58
71915;BME280;60387;49.994;14.660;2023-05-12T08:02:06;97745.75;;;27.69;27.53
71915;BME280;60387;49.994;14.660;2023-05-12T08:04:39;97737.38;;;27.76;27.68
71915;BME280;60387;49.994;14.660;2023-05-12T08:07:12;97754.69;;;27.94;28.10
71915;BME280;60387;49.994;14.660;2023-05-12T08:09:45;97748.19;;;28.04;27.21
71915;BME280;60387;49.994;14.660;2023-05-12T08:12:19;97756.03;;;28.16;27.47
71915;BME280;60387;49.994;14.660;2023-05-12T08:14:52;97753.63;;;28.18;28.03
71915;BME280;60387;49.994;14.660;2023-05-12T08:17:25;97763.91;;;28.21;26.44
71915;BME280;60387;49.994;14.660;2023-05-12T08:19:58;97769.88;;;28.23;26.70
71915;BME280;60387;49.994;14.660;2023-05-12T08:22:32;97769.56;;;28.14;25.47
71915;BME280;60387;49.994;14.660;2023-05-12T08:25:05;97771.22;;;27.64;25.40
71915;BME280;60387;49.994;14.660;2023-05-12T08:27:39;97758.06;;;27.28;25.46
71915;BME280;60387;49.994;14.660;2023-05-12T08:30:15;97760.84;;;27.28;27.66
71915;BME280;60387;49.994;14.660;2023-05-12T08:32:48;97760.25;;;27.50;26.94
71915;BME280;60387;49.994;14.660;2023-05-12T08:35:25;97762.03;;;27.71;27.28
71915;BME280;60387;49.994;14.660;2023-05-12T08:37:59;97763.91;;;27.88;26.35
71915;BME280;60387;49.994;14.660;2023-05-12T08:40:46;97768.53;;;28.01;26.16
71915;BME280;60387;49.994;14.660;2023-05-12T08:43:24;97768.22;;;28.29;26.72
71915;BME280;60387;49.994;14.660;2023-05-12T08:45:58;97764.75;;;28.55;26.27
71915;BME280;60387;49.994;14.660;2023-05-12T08:48:33;97773.56;;;28.80;26.21
71915;BME280;60387;49.994;14.660;2023-05-12T08:51:08;97772.56;;;28.97;25.20
71915;BME280;60387;49.994;14.660;2023-05-12T08:53:41;97764.16;;;29.01;25.13
71915;BME280;60387;49.994;14.660;2023-05-12T08:56:16;97776.19;;;28.94;24.49
71915;BME280;60387;49.994;14.660;2023-05-12T08:58:52;97774.13;;;28.68;24.33
71915;BME280;60387;49.994;14.660;2023-05-12T09:01:25;97768.91;;;28.40;25.03
71915;BME280;60387;49.994;14.660;2023-05-12T09:03:59;97775.03;;;28.25;25.96
71915;BME280;60387;49.994;14.660;2023-05-12T09:06:32;97773.16;;;28.15;25.66
71915;BME280;60387;49.994;14.660;2023-05-12T09:09:06;97774.53;;;27.96;25.21
71915;BME280;60387;49.994;14.660;2023-05-12T09:11:40;97761.97;;;27.81;24.87
71915;BME280;60387;49.994;14.660;2023-05-12T09:14:23;97776.41;;;27.66;24.85
71915;BME280;60387;49.994;14.660;2023-05-12T09:17:02;97776.31;;;27.29;24.99
71915;BME280;60387;49.994;14.660;2023-05-12T09:19:36;97763.41;;;26.95;25.38
71915;BME280;60387;49.994;14.660;2023-05-12T09:22:09;97773.09;;;26.69;25.60
71915;BME280;60387;49.994;14.660;2023-05-12T09:24:43;97764.03;;;26.48;25.91
71915;BME280;60387;49.994;14.660;2023-05-12T09:27:26;97764.19;;;26.09;25.96
71915;BME280;60387;49.994;14.660;2023-05-12T09:29:59;97752.31;;;25.84;26.32
71915;BME280;60387;49.994;14.660;2023-05-12T09:32:34;97768.97;;;25.74;26.97
71915;BME280;60387;49.994;14.660;2023-05-12T09:35:09;97757.88;;;25.70;26.84
71915;BME280;60387;49.994;14.660;2023-05-12T09:37:42;97754.31;;;25.70;27.28
71915;BME280;60387;49.994;14.660;2023-05-12T09:40:15;97753.91;;;25.78;26.90
71915;BME280;60387;49.994;14.660;2023-05-12T09:42:49;97762.97;;;26.10;26.88
71915;BME280;60387;49.994;14.660;2023-05-12T09:45:22;97756.09;;;26.43;26.26
71915;BME280;60387;49.994;14.660;2023-05-12T09:47:56;97760.00;;;26.63;25.74
71915;BME280;60387;49.994;14.660;2023-05-12T09:50:34;97761.53;;;26.74;24.64
71915;BME280;60387;49.994;14.660;2023-05-12T09:53:14;97752.78;;;26.79;26.13
71915;BME280;60387;49.994;14.660;2023-05-12T09:55:48;97770.34;;;26.66;25.28
71915;BME280;60387;49.994;14.660;2023-05-12T09:58:23;97754.50;;;26.59;25.92
71915;BME280;60387;49.994;14.660;2023-05-12T10:00:58;97769.22;;;26.42;26.17
71915;BME280;60387;49.994;14.660;2023-05-12T10:03:32;97751.38;;;26.40;25.63
71915;BME280;60387;49.994;14.660;2023-05-12T10:06:10;97754.91;;;26.44;26.21
71915;BME280;60387;49.994;14.660;2023-05-12T10:11:30;97754.34;;;26.84;26.37
71915;BME280;60387;49.994;14.660;2023-05-12T10:14:03;97746.38;;;26.86;26.61
71915;BME280;60387;49.994;14.660;2023-05-12T10:16:39;97743.25;;;26.77;26.26
71915;BME280;60387;49.994;14.660;2023-05-12T10:19:12;97740.94;;;26.68;26.13
71915;BME280;60387;49.994;14.660;2023-05-12T10:21:46;97744.50;;;26.69;26.97
71915;BME280;60387;49.994;14.660;2023-05-12T10:24:19;97741.97;;;26.92;27.27
71915;BME280;60387;49.994;14.660;2023-05-12T10:26:54;97731.78;;;27.33;26.42
71915;BME280;60387;49.994;14.660;2023-05-12T10:29:28;97740.69;;;27.57;25.14
71915;BME280;60387;49.994;14.660;2023-05-12T10:32:02;97740.50;;;27.34;24.86
71915;BME280;60387;49.994;14.660;2023-05-12T10:34:36;97747.09;;;26.97;24.11
71915;BME280;60387;49.994;14.660;2023-05-12T10:37:10;97739.72;;;26.73;25.18
71915;BME280;60387;49.994;14.660;2023-05-12T10:39:48;97750.53;;;26.50;25.71
71915;BME280;60387;49.994;14.660;2023-05-12T10:42:22;97750.66;;;26.18;26.17
71915;BME280;60387;49.994;14.660;2023-05-12T10:44:55;97752.69;;;26.04;26.26
71915;BME280;60387;49.994;14.660;2023-05-12T10:47:37;97747.56;;;25.88;26.44
71915;BME280;60387;49.994;14.660;2023-05-12T10:50:10;97751.13;;;25.82;26.38
71915;BME280;60387;49.994;14.660;2023-05-12T10:52:54;97747.16;;;25.86;26.38
71915;BME280;60387;49.994;14.660;2023-05-12T10:55:35;97750.34;;;25.88;26.43
71915;BME280;60387;49.994;14.660;2023-05-12T10:58:13;97749.56;;;25.88;26.39
71915;BME280;60387;49.994;14.660;2023-05-12T11:00:50;97742.03;;;25.78;26.27
71915;BME280;60387;49.994;14.660;2023-05-12T11:03:23;97741.22;;;25.74;26.51
71915;BME280;60387;49.994;14.660;2023-05-12T11:06:01;97743.63;;;25.65;26.92
71915;BME280;60387;49.994;14.660;2023-05-12T11:08:35;97755.91;;;25.64;26.60
71915;BME280;60387;49.994;14.660;2023-05-12T11:11:09;97745.63;;;25.54;26.68
71915;BME280;60387;49.994;14.660;2023-05-12T11:13:42;97740.06;;;25.40;27.14
71915;BME280;60387;49.994;14.660;2023-05-12T11:16:16;97748.00;;;25.41;26.97
71915;BME280;60387;49.994;14.660;2023-05-12T11:19:05;97740.06;;;25.54;27.30
71915;BME280;60387;49.994;14.660;2023-05-12T11:21:38;97736.50;;;25.57;27.34
71915;BME280;60387;49.994;14.660;2023-05-12T11:24:12;97725.38;;;25.67;27.31
71915;BME280;60387;49.994;14.660;2023-05-12T11:26:45;97735.66;;;25.74;27.12
71915;BME280;60387;49.994;14.660;2023-05-12T11:29:18;97733.28;;;25.72;27.21
71915;BME280;60387;49.994;14.660;2023-05-12T11:31:52;97734.47;;;25.75;27.51
71915;BME280;60387;49.994;14.660;2023-05-12T11:34:26;97737.25;;;25.71;28.03
71915;BME280;60387;49.994;14.660;2023-05-12T11:36:59;97736.50;;;25.64;28.00
71915;BME280;60387;49.994;14.660;2023-05-12T11:39:32;97736.50;;;25.64;28.04
71915;BME280;60387;49.994;14.660;2023-05-12T11:42:07;97741.59;;;25.76;27.95
71915;BME280;60387;49.994;14.660;2023-05-12T11:44:47;97744.78;;;25.88;27.92
71915;BME280;60387;49.994;14.660;2023-05-12T11:47:21;97749.56;;;25.95;27.62
71915;BME280;60387;49.994;14.660;2023-05-12T11:49:54;97753.91;;;25.82;27.33
71915;BME280;60387;49.994;14.660;2023-05-12T11:52:28;97746.78;;;25.70;27.70
71915;BME280;60387;49.994;14.660;2023-05-12T11:55:01;97742.03;;;25.71;28.36
71915;BME280;60387;49.994;14.660;2023-05-12T11:57:34;97749.94;;;25.76;28.10
71915;BME280;60387;49.994;14.660;2023-05-12T12:00:08;97743.63;;;25.72;27.92
71915;BME280;60387;49.994;14.660;2023-05-12T12:02:41;97748.78;;;25.63;27.67
71915;BME280;60387;49.994;14.660;2023-05-12T12:05:15;97748.41;;;25.54;28.37
71915;BME280;60387;49.994;14.660;2023-05-12T12:07:49;97748.78;;;25.52;27.89
71915;BME280;60387;49.994;14.660;2023-05-12T12:10:22;97739.28;;;25.53;27.93
71915;BME280;60387;49.994;14.660;2023-05-12T12:12:55;97742.84;;;25.61;28.15
71915;BME280;60387;49.994;14.660;2023-05-12T12:15:29;97753.91;;;25.75;27.89
71915;BME280;60387;49.994;14.660;2023-05-12T12:18:02;97752.31;;;25.95;28.39
71915;BME280;60387;49.994;14.660;2023-05-12T12:20:35;97751.41;;;26.26;27.81
71915;BME280;60387;49.994;14.660;2023-05-12T12:23:08;97749.78;;;26.42;27.54
71915;BME280;60387;49.994;14.660;2023-05-12T12:25:42;97751.72;;;26.49;27.21
71915;BME280;60387;49.994;14.660;2023-05-12T12:28:15;97746.16;;;26.49;27.81
71915;BME280;60387;49.994;14.660;2023-05-12T12:30:49;97755.28;;;26.49;27.08
71915;BME280;60387;49.994;14.660;2023-05-12T12:33:22;97758.50;;;26.41;27.37
71915;BME280;60387;49.994;14.660;2023-05-12T12:35:55;97762.50;;;26.33;27.37
71915;BME280;60387;49.994;14.660;2023-05-12T12:38:29;97766.53;;;26.14;28.21
71915;BME280;60387;49.994;14.660;2023-05-12T12:41:02;97765.78;;;25.86;28.67
71915;BME280;60387;49.994;14.660;2023-05-12T12:43:35;97761.47;;;25.71;28.64
71915;BME280;60387;49.994;14.660;2023-05-12T12:46:09;97761.84;;;25.66;28.63
71915;BME280;60387;49.994;14.660;2023-05-12T12:48:42;97775.34;;;25.60;28.55
71915;BME280;60387;49.994;14.660;2023-05-12T12:51:15;97771.38;;;25.40;28.64
71915;BME280;60387;49.994;14.660;2023-05-12T12:53:49;97774.94;;;25.23;29.23
71915;BME280;60387;49.994;14.660;2023-05-12T12:56:22;97778.88;;;25.12;30.00
71915;BME280;60387;49.994;14.660;2023-05-12T12:58:55;97787.94;;;24.95;31.02
71915;BME280;60387;49.994;14.660;2023-05-12T13:01:28;97777.63;;;24.81;31.17
71915;BME280;60387;49.994;14.660;2023-05-12T13:04:02;97779.19;;;24.75;31.24
71915;BME280;60387;49.994;14.660;2023-05-12T13:06:35;97776.81;;;24.77;32.43
71915;BME280;60387;49.994;14.660;2023-05-12T13:09:08;97777.22;;;24.90;31.79
71915;BME280;60387;49.994;14.660;2023-05-12T13:11:42;97774.50;;;25.04;31.73
71915;BME280;60387;49.994;14.660;2023-05-12T13:14:15;97767.03;;;25.25;31.18
71915;BME280;60387;49.994;14.660;2023-05-12T13:16:48;97746.00;;;25.35;30.59
71915;BME280;60387;49.994;14.660;2023-05-12T13:19:21;97753.91;;;25.71;29.64
71915;BME280;60387;49.994;14.660;2023-05-12T13:21:55;97754.69;;;25.93;29.49
71915;BME280;60387;49.994;14.660;2023-05-12T13:24:28;97742.72;;;26.13;29.19
71915;BME280;60387;49.994;14.660;2023-05-12T13:27:01;97753.34;;;26.39;28.54